Time;durP1;ratioP1;P1;durP2;ratioP2;P2;SDS_P1;SDS_P2;PMS_P1;PMS_P2;Temp;Humidity;BMP_temperature;BMP_pressure;BME280_temperature;BME280_humidity;BME280_pressure;Samples;Min_cycle;Max_cycle;Signal;HPM_P1;HPM_P2
2021/05/17 00:00:57;;;;;;;0.93;0.38;;;18.70;96.10;;;;;;5032773;28;20055;-74
2021/05/17 00:03:24;;;;;;;0.82;0.40;;;18.70;96.10;;;;;;5032577;28;20056;-73
2021/05/17 00:05:51;;;;;;;1.20;0.40;;;18.70;96.10;;;;;;5032809;28;20057;-74
2021/05/17 00:08:16;;;;;;;1.13;0.43;;;18.70;96.10;;;;;;5031545;28;20033;-74
2021/05/17 00:10:42;;;;;;;0.82;0.30;;;18.70;96.10;;;;;;5032343;28;20031;-74
2021/05/17 00:13:08;;;;;;;0.68;0.30;;;18.70;96.00;;;;;;5032823;28;20028;-73
2021/05/17 00:15:34;;;;;;;0.88;0.40;;;18.70;96.00;;;;;;5032677;28;20500;-72
2021/05/17 00:18:00;;;;;;;1.13;0.30;;;18.70;96.00;;;;;;5033043;28;20363;-73
2021/05/17 00:20:26;;;;;;;1.13;0.38;;;18.70;96.00;;;;;;5032570;28;20061;-70
2021/05/17 00:22:53;;;;;;;1.40;0.50;;;18.70;96.00;;;;;;5032489;28;20038;-68
2021/05/17 00:25:23;;;;;;;0.65;0.40;;;18.70;96.00;;;;;;5032652;28;20041;-67
2021/05/17 00:27:50;;;;;;;0.90;0.30;;;18.70;96.00;;;;;;5031922;28;20068;-72
2021/05/17 00:30:16;;;;;;;0.50;0.30;;;18.70;96.00;;;;;;5032711;28;20057;-67
2021/05/17 00:32:43;;;;;;;0.40;0.32;;;18.70;96.00;;;;;;5031248;28;20084;-71
2021/05/17 00:35:09;;;;;;;1.20;0.50;;;18.70;96.00;;;;;;5032472;28;20087;-66
2021/05/17 00:37:35;;;;;;;1.73;0.50;;;18.70;96.00;;;;;;5032375;28;20025;-72
2021/05/17 00:40:00;;;;;;;1.05;0.30;;;18.70;96.00;;;;;;5031864;28;20036;-73
2021/05/17 00:42:26;;;;;;;1.02;0.50;;;18.60;95.90;;;;;;5032497;28;20017;-67
2021/05/17 00:44:53;;;;;;;1.35;0.50;;;18.70;95.90;;;;;;5032073;28;20060;-70
2021/05/17 00:47:19;;;;;;;1.13;0.40;;;18.60;95.90;;;;;;5032120;28;20022;-70
2021/05/17 00:49:46;;;;;;;1.05;0.40;;;18.60;95.90;;;;;;5032154;28;20040;-70
2021/05/17 00:52:14;;;;;;;1.08;0.28;;;18.60;95.90;;;;;;5032080;28;20029;-69
2021/05/17 00:54:40;;;;;;;1.45;0.40;;;18.60;95.80;;;;;;5031796;28;20494;-66
2021/05/17 00:57:07;;;;;;;1.33;0.30;;;18.60;95.80;;;;;;5031558;28;20469;-70
2021/05/17 00:59:33;;;;;;;1.10;0.50;;;18.60;95.80;;;;;;5032165;28;20477;-74
2021/05/17 01:02:00;;;;;;;1.58;0.50;;;18.60;95.80;;;;;;5031374;28;20080;-72
2021/05/17 01:04:25;;;;;;;1.65;0.40;;;18.60;95.90;;;;;;5031890;28;20026;-65
2021/05/17 01:06:52;;;;;;;0.40;0.32;;;18.60;95.80;;;;;;5031813;28;20095;-68
2021/05/17 01:09:18;;;;;;;1.55;0.60;;;18.60;95.80;;;;;;5031850;28;20094;-68
2021/05/17 01:11:44;;;;;;;0.95;0.47;;;18.60;95.80;;;;;;5030815;28;20537;-69
2021/05/17 01:14:10;;;;;;;1.58;0.40;;;18.60;95.80;;;;;;5032313;28;20033;-68
2021/05/17 01:16:36;;;;;;;1.10;0.50;;;18.60;95.80;;;;;;5031810;28;20427;-64
2021/05/17 01:19:06;;;;;;;1.90;0.60;;;18.60;96.10;;;;;;5032036;28;20396;-65
2021/05/17 01:21:36;;;;;;;1.52;0.50;;;18.60;95.80;;;;;;5031358;28;20083;-64
2021/05/17 01:24:02;;;;;;;2.38;0.40;;;18.60;95.70;;;;;;5031733;28;20022;-64
2021/05/17 01:26:31;;;;;;;1.67;0.40;;;18.60;95.70;;;;;;5031670;28;20041;-65
2021/05/17 01:29:00;;;;;;;1.63;0.50;;;18.60;95.70;;;;;;5031565;28;20505;-74
2021/05/17 01:31:26;;;;;;;0.82;0.40;;;18.60;95.70;;;;;;5031190;28;20018;-74
2021/05/17 01:33:52;;;;;;;2.53;0.50;;;18.60;95.70;;;;;;5034128;28;20382;-73
2021/05/17 01:36:18;;;;;;;2.17;0.60;;;18.60;95.70;;;;;;5035298;28;20040;-75
2021/05/17 01:38:47;;;;;;;1.75;0.47;;;18.60;95.70;;;;;;5035777;28;20089;-74
2021/05/17 01:41:15;;;;;;;1.20;0.43;;;18.60;95.70;;;;;;5035804;28;20487;-74
2021/05/17 01:43:46;;;;;;;1.45;0.50;;;18.60;95.70;;;;;;5036042;28;20022;-72
2021/05/17 01:46:18;;;;;;;1.90;0.40;;;18.60;95.70;;;;;;5035490;28;20036;-75
2021/05/17 01:48:44;;;;;;;1.13;0.40;;;18.50;95.60;;;;;;5035641;28;20474;-74
2021/05/17 01:51:16;;;;;;;1.48;0.50;;;18.60;95.70;;;;;;5035539;28;20030;-74
2021/05/17 01:53:43;;;;;;;1.10;0.38;;;18.50;95.60;;;;;;5035872;28;20030;-73
2021/05/17 01:56:11;;;;;;;1.30;0.40;;;18.50;95.60;;;;;;5035676;28;20106;-75
2021/05/17 01:58:37;;;;;;;1.73;0.55;;;18.60;95.60;;;;;;5034897;28;20051;-73
2021/05/17 02:01:13;;;;;;;1.02;0.40;;;18.60;95.50;;;;;;5034955;28;20037;-73
2021/05/17 02:03:41;;;;;;;1.40;0.60;;;18.60;95.50;;;;;;5035605;28;20057;-75
2021/05/17 02:06:09;;;;;;;1.88;0.60;;;18.60;95.50;;;;;;5035191;28;20029;-74
2021/05/17 02:08:40;;;;;;;0.90;0.45;;;18.60;95.50;;;;;;5034983;28;20029;-72
2021/05/17 02:11:16;;;;;;;2.70;0.80;;;18.60;95.40;;;;;;5035263;28;20116;-75
2021/05/17 02:13:42;;;;;;;1.60;0.68;;;18.60;95.70;;;;;;5034061;28;20033;-75
2021/05/17 02:16:11;;;;;;;1.58;0.50;;;18.60;95.40;;;;;;5034973;28;20029;-75
2021/05/17 02:18:38;;;;;;;1.23;0.40;;;18.50;95.40;;;;;;5035067;28;20040;-73
2021/05/17 02:21:05;;;;;;;2.85;0.50;;;18.50;95.40;;;;;;5034831;28;20044;-75
2021/05/17 02:23:31;;;;;;;1.75;0.55;;;18.60;95.40;;;;;;5034677;28;20029;-73
2021/05/17 02:25:57;;;;;;;1.67;0.52;;;18.60;95.40;;;;;;5034903;28;20026;-75
2021/05/17 02:28:23;;;;;;;2.05;0.65;;;18.60;95.30;;;;;;5034060;28;20103;-74
2021/05/17 02:30:49;;;;;;;2.15;0.75;;;18.60;95.30;;;;;;5032791;28;20033;-74
2021/05/17 02:33:15;;;;;;;2.80;0.50;;;18.60;95.30;;;;;;5034479;28;20045;-74
2021/05/17 02:35:41;;;;;;;2.63;0.60;;;18.60;95.30;;;;;;5015275;28;20056;-72
2021/05/17 02:38:08;;;;;;;2.22;0.68;;;18.60;95.30;;;;;;5024003;28;20063;-71
2021/05/17 02:40:34;;;;;;;2.15;0.47;;;18.60;95.30;;;;;;5034525;28;20029;-75
2021/05/17 02:43:06;;;;;;;2.33;0.68;;;18.50;95.20;;;;;;5034593;28;20037;-72
2021/05/17 02:45:32;;;;;;;2.95;0.80;;;18.50;95.20;;;;;;5034125;28;20029;-69
2021/05/17 02:47:59;;;;;;;2.17;0.75;;;18.50;95.20;;;;;;5034180;28;20037;-74
2021/05/17 02:50:32;;;;;;;1.73;0.68;;;18.50;95.20;;;;;;5034484;28;20036;-74
2021/05/17 02:52:58;;;;;;;2.30;0.77;;;18.50;95.20;;;;;;5034468;28;20029;-75
2021/05/17 02:55:30;;;;;;;2.17;0.57;;;18.50;95.20;;;;;;5034282;28;20044;-73
2021/05/17 02:58:04;;;;;;;2.63;0.60;;;18.50;95.20;;;;;;5033786;28;20117;-72
2021/05/17 03:00:32;;;;;;;1.70;0.70;;;18.50;95.10;;;;;;5034105;28;20036;-72
2021/05/17 03:03:19;;;;;;;2.47;0.60;;;18.50;95.20;;;;;;5034019;28;20038;-73
2021/05/17 03:05:48;;;;;;;2.85;0.73;;;18.50;95.10;;;;;;5033766;28;20073;-74
2021/05/17 03:08:19;;;;;;;2.40;0.80;;;18.50;95.10;;;;;;5034136;28;20029;-73
2021/05/17 03:10:46;;;;;;;2.58;0.75;;;18.50;95.10;;;;;;5034326;28;20026;-72
2021/05/17 03:13:17;;;;;;;2.65;0.80;;;18.50;95.10;;;;;;5032582;28;20038;-74
2021/05/17 03:15:44;;;;;;;2.35;0.70;;;18.40;95.00;;;;;;5034041;28;20018;-74
2021/05/17 03:18:10;;;;;;;2.65;0.70;;;18.50;95.10;;;;;;5033768;28;20024;-74
2021/05/17 03:20:37;;;;;;;2.38;0.63;;;18.50;95.10;;;;;;5033787;28;20032;-74
2021/05/17 03:23:07;;;;;;;3.15;0.90;;;18.40;95.00;;;;;;5033984;28;20034;-66
2021/05/17 03:25:34;;;;;;;2.97;0.93;;;18.40;95.00;;;;;;5033787;28;20029;-68
2021/05/17 03:28:00;;;;;;;2.53;0.77;;;18.40;95.00;;;;;;5026401;28;20037;-67
2021/05/17 03:30:26;;;;;;;2.90;1.00;;;18.40;95.00;;;;;;5033767;28;20025;-68
2021/05/17 03:32:52;;;;;;;3.10;0.93;;;18.40;95.00;;;;;;5032852;28;20033;-69
2021/05/17 03:35:18;;;;;;;3.45;0.85;;;18.40;95.00;;;;;;5033998;28;20063;-69
2021/05/17 03:37:45;;;;;;;4.78;0.90;;;18.40;95.40;;;;;;5033672;28;20041;-67
2021/05/17 03:40:12;;;;;;;1.88;0.80;;;18.40;95.00;;;;;;5032972;28;20034;-70
2021/05/17 03:42:38;;;;;;;3.45;1.00;;;18.40;95.00;;;;;;5033599;28;20018;-64
2021/05/17 03:45:06;;;;;;;2.83;0.95;;;18.40;95.00;;;;;;5033477;28;20028;-64
2021/05/17 03:47:32;;;;;;;3.83;0.95;;;18.40;95.00;;;;;;5033044;28;20504;-66
2021/05/17 03:49:58;;;;;;;2.47;0.88;;;18.40;95.00;;;;;;5033127;28;20033;-64
2021/05/17 03:52:23;;;;;;;2.30;0.70;;;18.40;95.00;;;;;;5033163;28;20120;-73
2021/05/17 03:54:49;;;;;;;3.88;1.00;;;18.40;95.00;;;;;;5033253;28;20030;-75
2021/05/17 03:57:15;;;;;;;2.92;0.80;;;18.40;95.00;;;;;;5033031;28;20025;-73
2021/05/17 03:59:43;;;;;;;3.85;0.90;;;18.40;95.00;;;;;;5032053;28;20032;-74
2021/05/17 04:02:09;;;;;;;3.67;1.10;;;18.40;95.00;;;;;;5032920;28;20025;-74
2021/05/17 04:04:39;;;;;;;3.15;0.80;;;18.30;94.90;;;;;;5033308;28;20032;-73
2021/05/17 04:15:13;;;;;;;2.65;0.88;;;18.30;95.00;;;;;;5031769;28;20078;-74
2021/05/17 04:17:38;;;;;;;3.58;1.10;;;18.30;95.00;;;;;;5032663;28;20060;-74
2021/05/17 04:20:04;;;;;;;3.97;1.00;;;18.30;94.90;;;;;;5032761;28;20029;-73
2021/05/17 04:22:30;;;;;;;2.78;0.90;;;18.30;94.90;;;;;;5032224;28;20026;-75
2021/05/17 04:24:56;;;;;;;2.20;0.80;;;18.30;94.90;;;;;;5032735;28;20026;-74
2021/05/17 04:27:21;;;;;;;3.47;1.10;;;18.30;94.90;;;;;;5032322;28;20430;-70
2021/05/17 04:29:47;;;;;;;3.33;0.90;;;18.30;94.90;;;;;;5032603;28;20120;-74
2021/05/17 04:32:12;;;;;;;2.28;0.77;;;18.30;94.90;;;;;;5032150;28;20033;-74
2021/05/17 04:34:38;;;;;;;1.98;0.60;;;18.20;94.90;;;;;;5032231;28;20048;-75
2021/05/17 04:37:04;;;;;;;2.35;0.70;;;18.20;94.90;;;;;;5032535;28;20104;-71
2021/05/17 04:39:29;;;;;;;3.58;0.90;;;18.20;94.90;;;;;;5032081;28;20029;-73
2021/05/17 04:41:55;;;;;;;2.17;0.60;;;18.20;94.90;;;;;;5032199;28;20381;-73
2021/05/17 04:44:20;;;;;;;2.72;0.77;;;18.20;94.90;;;;;;5032621;28;20408;-75
2021/05/17 04:46:46;;;;;;;2.33;0.80;;;18.20;94.90;;;;;;5032213;28;20041;-73
2021/05/17 04:49:11;;;;;;;2.85;0.88;;;18.20;94.90;;;;;;5032123;28;20579;-75
2021/05/17 04:51:37;;;;;;;3.42;1.15;;;18.20;94.90;;;;;;5031984;28;20036;-72
2021/05/17 04:54:03;;;;;;;4.70;0.90;;;18.20;94.80;;;;;;5032145;28;20374;-75
2021/05/17 04:56:29;;;;;;;2.55;0.85;;;18.20;94.80;;;;;;5032119;28;20466;-76
2021/05/17 04:58:55;;;;;;;3.03;0.70;;;18.20;95.10;;;;;;5030837;28;20036;-74
2021/05/17 05:01:20;;;;;;;2.13;0.80;;;18.20;94.80;;;;;;5031668;28;20526;-71
2021/05/17 05:03:46;;;;;;;2.60;0.73;;;18.20;94.80;;;;;;5031198;28;20048;-74
2021/05/17 05:06:11;;;;;;;3.35;0.88;;;18.30;94.80;;;;;;5032016;28;20025;-73
2021/05/17 05:08:37;;;;;;;3.38;0.88;;;18.30;94.70;;;;;;5031025;28;20072;-71
2021/05/17 05:11:03;;;;;;;2.90;0.80;;;18.30;94.70;;;;;;5031482;28;20037;-69
2021/05/17 05:13:28;;;;;;;1.95;0.70;;;18.30;94.70;;;;;;5031977;28;20473;-71
2021/05/17 05:15:54;;;;;;;2.58;0.82;;;18.20;94.70;;;;;;5031889;28;20023;-68
2021/05/17 05:18:20;;;;;;;2.92;0.93;;;18.30;94.70;;;;;;5032463;28;20057;-71
2021/05/17 05:20:46;;;;;;;3.83;1.05;;;18.30;94.70;;;;;;5031628;28;20025;-70
2021/05/17 05:23:16;;;;;;;3.40;1.05;;;18.30;94.70;;;;;;5031365;28;20369;-69
2021/05/17 05:28:24;;;;;;;2.72;0.80;;;18.30;94.70;;;;;;5032222;28;20037;-69
2021/05/17 05:31:11;;;;;;;4.88;1.15;;;18.30;94.70;;;;;;5031701;28;20018;-66
2021/05/17 05:33:37;;;;;;;4.35;0.98;;;18.20;94.70;;;;;;5031400;28;20505;-67
2021/05/17 05:36:03;;;;;;;2.97;1.00;;;18.20;94.70;;;;;;5031356;28;20037;-70
2021/05/17 05:38:28;;;;;;;4.22;1.10;;;18.20;94.70;;;;;;5031616;28;20032;-68
2021/05/17 05:40:54;;;;;;;2.42;0.88;;;18.20;94.70;;;;;;5032089;28;20030;-67
2021/05/17 05:43:20;;;;;;;2.92;0.90;;;18.20;94.70;;;;;;5032241;28;20101;-68
2021/05/17 05:45:46;;;;;;;1.90;0.80;;;18.20;94.70;;;;;;5031453;28;20409;-67
2021/05/17 05:48:12;;;;;;;3.22;1.20;;;18.20;94.70;;;;;;5031634;28;20478;-68
2021/05/17 05:50:39;;;;;;;3.95;1.00;;;18.20;94.70;;;;;;5030071;28;20034;-64
2021/05/17 05:53:05;;;;;;;4.07;0.95;;;18.20;95.00;;;;;;5031263;28;20037;-63
2021/05/17 05:55:31;;;;;;;3.13;1.10;;;18.20;94.70;;;;;;5031325;28;20124;-65
2021/05/17 05:57:57;;;;;;;4.18;1.02;;;18.20;94.70;;;;;;5031556;28;20033;-64
2021/05/17 06:00:29;;;;;;;3.97;1.10;;;18.20;94.80;;;;;;5031602;28;20029;-64
2021/05/17 06:02:56;;;;;;;3.00;0.93;;;18.20;94.80;;;;;;5031330;28;20026;-67
2021/05/17 06:05:21;;;;;;;5.28;1.45;;;18.20;95.00;;;;;;5031231;28;20037;-67
2021/05/17 06:07:47;;;;;;;3.80;1.10;;;18.20;95.10;;;;;;5031665;28;20102;-67
2021/05/17 06:10:13;;;;;;;4.68;1.15;;;18.20;95.10;;;;;;5031634;28;20030;-74
2021/05/17 06:12:41;;;;;;;3.85;1.05;;;18.20;95.50;;;;;;5031267;28;20036;-70
2021/05/17 06:15:10;;;;;;;3.33;1.35;;;18.10;95.20;;;;;;5031400;28;20064;-70
2021/05/17 06:17:36;;;;;;;5.38;1.20;;;18.20;95.30;;;;;;5030717;28;20018;-73
2021/05/17 06:20:04;;;;;;;7.38;1.50;;;18.20;95.30;;;;;;5033874;28;20083;-71
2021/05/17 06:22:30;;;;;;;7.53;2.00;;;18.20;96.60;;;;;;5034323;28;20056;-70
2021/05/17 06:24:59;;;;;;;8.43;1.60;;;18.10;96.50;;;;;;5034802;28;20021;-72
2021/05/17 06:27:25;;;;;;;9.38;1.60;;;18.10;96.50;;;;;;5035093;28;20033;-70
2021/05/17 06:29:54;;;;;;;9.02;1.77;;;18.10;96.50;;;;;;5034969;28;20025;-72
2021/05/17 06:32:21;;;;;;;4.97;1.40;;;18.00;96.80;;;;;;5034240;28;20128;-71
2021/05/17 06:34:49;;;;;;;5.90;1.70;;;18.00;96.40;;;;;;5034231;28;20514;-72
2021/05/17 06:37:15;;;;;;;8.88;1.85;;;18.10;96.30;;;;;;5034381;28;20109;-69
2021/05/17 06:39:40;;;;;;;5.95;1.83;;;18.10;96.20;;;;;;5034578;28;20113;-71
2021/05/17 06:42:07;;;;;;;6.55;1.80;;;18.10;96.20;;;;;;5034793;28;20040;-71
2021/05/17 06:44:32;;;;;;;5.90;1.77;;;18.20;96.10;;;;;;5034615;28;20030;-71
2021/05/17 06:46:59;;;;;;;4.88;1.50;;;18.20;96.10;;;;;;5034418;28;20029;-69
2021/05/17 06:49:27;;;;;;;7.75;1.80;;;18.20;96.00;;;;;;5034813;28;20025;-71
2021/05/17 06:51:53;;;;;;;4.47;1.55;;;18.20;96.00;;;;;;5033855;28;20513;-71
2021/05/17 06:54:23;;;;;;;5.78;1.80;;;18.20;96.10;;;;;;5034229;28;20088;-71
2021/05/17 06:56:55;;;;;;;6.00;1.83;;;18.30;96.00;;;;;;5033906;28;20022;-71
2021/05/17 06:59:23;;;;;;;5.03;2.00;;;18.30;96.00;;;;;;5034450;28;20021;-68
2021/05/17 07:01:49;;;;;;;5.43;1.98;;;18.30;96.00;;;;;;5034096;28;20029;-67
2021/05/17 07:04:16;;;;;;;3.70;1.55;;;18.30;96.10;;;;;;5034288;28;20041;-69
2021/05/17 07:06:52;;;;;;;10.02;1.98;;;18.30;96.20;;;;;;5033837;28;20037;-67
2021/05/17 07:14:34;;;;;;;5.82;2.00;;;18.30;96.30;;;;;;5033235;28;20034;-70
2021/05/17 07:17:00;;;;;;;9.70;2.15;;;18.30;96.20;;;;;;5033613;28;20037;-72
2021/05/17 07:19:26;;;;;;;9.80;1.90;;;18.40;96.20;;;;;;5034364;28;20079;-76
2021/05/17 07:24:36;;;;;;;6.28;1.80;;;18.40;96.90;;;;;;5033821;28;20500;-74
2021/05/17 07:27:02;;;;;;;5.05;1.63;;;18.40;96.50;;;;;;5033570;28;20033;-69
2021/05/17 07:29:32;;;;;;;4.65;1.70;;;18.50;96.60;;;;;;5034208;28;20401;-78
2021/05/17 07:31:58;;;;;;;20.02;2.03;;;18.50;96.50;;;;;;5032438;28;20025;-73
2021/05/17 07:34:24;;;;;;;4.50;1.92;;;18.60;96.40;;;;;;5033424;28;20044;-77
2021/05/17 07:36:49;;;;;;;6.35;1.85;;;18.70;96.30;;;;;;5033139;28;20087;-78
2021/05/17 07:39:15;;;;;;;5.45;1.92;;;18.70;96.30;;;;;;5033430;28;20029;-82
2021/05/17 07:41:41;;;;;;;4.57;1.90;;;18.80;96.20;;;;;;5033955;28;20025;-80
2021/05/17 07:44:07;;;;;;;4.88;1.40;;;18.80;96.10;;;;;;5032190;28;20033;-79
2021/05/17 07:46:33;;;;;;;5.55;1.52;;;18.90;96.10;;;;;;5032014;28;20053;-77
2021/05/17 07:49:08;;;;;;;4.50;1.70;;;18.90;96.10;;;;;;5033351;28;20052;-74
2021/05/17 07:51:36;;;;;;;5.32;1.58;;;19.00;96.00;;;;;;5032254;28;20037;-82
2021/05/17 07:54:03;;;;;;;6.03;1.80;;;19.00;95.90;;;;;;5033997;28;20029;-78
2021/05/17 07:56:29;;;;;;;5.35;1.50;;;19.00;95.80;;;;;;5033509;28;20220;-76
2021/05/17 07:58:55;;;;;;;7.20;1.55;;;18.90;95.40;;;;;;5033434;28;20026;-77
2021/05/17 08:01:21;;;;;;;3.17;1.23;;;19.00;95.60;;;;;;5033336;28;20022;-72
2021/05/17 08:03:46;;;;;;;7.85;1.63;;;20.00;94.70;;;;;;5033067;28;20405;-76
2021/05/17 08:06:12;;;;;;;4.07;1.33;;;20.20;94.10;;;;;;5032744;28;20104;-76
2021/05/17 08:08:38;;;;;;;4.30;1.13;;;20.00;94.30;;;;;;5032933;28;20497;-70
2021/05/17 08:11:03;;;;;;;2.53;1.00;;;19.80;94.40;;;;;;5033142;28;20029;-63
2021/05/17 08:13:30;;;;;;;3.80;1.30;;;19.80;94.80;;;;;;5033366;28;20036;-70
2021/05/17 08:15:56;;;;;;;3.58;1.20;;;19.80;94.90;;;;;;5032988;28;20055;-72
2021/05/17 08:18:21;;;;;;;3.58;1.40;;;19.80;95.00;;;;;;5032682;28;20021;-67
2021/05/17 08:20:47;;;;;;;3.90;1.13;;;19.80;95.00;;;;;;5032992;28;20099;-66
2021/05/17 08:23:14;;;;;;;3.30;1.30;;;19.80;95.00;;;;;;5032869;28;20048;-66
2021/05/17 08:25:40;;;;;;;4.25;1.25;;;19.90;95.00;;;;;;5032298;28;20026;-66
2021/05/17 08:28:06;;;;;;;7.00;1.55;;;20.00;95.00;;;;;;5031982;28;20076;-66
2021/05/17 08:30:40;;;;;;;5.60;1.00;;;20.00;94.90;;;;;;5031960;28;20039;-69
2021/05/17 08:33:06;;;;;;;;;;;20.00;94.90;;;;;;5032747;28;20030;-66
2021/05/17 08:35:31;;;;;;;4.57;1.10;;;20.10;94.80;;;;;;5032934;28;19912;-66
2021/05/17 08:37:57;;;;;;;4.10;1.33;;;20.20;94.80;;;;;;5032664;28;20025;-66
2021/05/17 08:40:26;;;;;;;3.10;1.10;;;20.20;94.70;;;;;;5031928;28;20560;-67
2021/05/17 08:42:55;;;;;;;5.30;1.30;;;20.20;94.60;;;;;;5031896;28;20056;-67
2021/05/17 08:45:22;;;;;;;2.60;1.15;;;20.20;94.50;;;;;;5031549;28;20362;-66
2021/05/17 08:47:47;;;;;;;2.88;1.33;;;20.30;94.50;;;;;;5031890;28;20029;-65
2021/05/17 08:50:13;;;;;;;3.95;1.10;;;20.40;94.30;;;;;;5031328;28;20048;-66
2021/05/17 08:52:39;;;;;;;2.97;0.90;;;20.50;94.20;;;;;;5031129;28;20091;-65
2021/05/17 08:55:07;;;;;;;4.22;1.23;;;20.50;94.10;;;;;;5032603;28;20474;-67
2021/05/17 08:57:33;;;;;;;4.00;1.10;;;20.50;94.20;;;;;;5032678;28;20385;-67
2021/05/17 08:59:59;;;;;;;2.50;0.90;;;20.50;94.00;;;;;;5031626;28;20029;-67
2021/05/17 09:02:29;;;;;;;2.72;1.10;;;20.60;94.20;;;;;;5031408;28;20033;-67
2021/05/17 09:05:24;;;;;;;3.95;1.40;;;20.60;94.00;;;;;;5031510;28;20030;-66
2021/05/17 09:07:57;;;;;;;3.30;1.25;;;20.70;94.10;;;;;;5031902;28;20112;-66
2021/05/17 09:10:36;;;;;;;4.15;1.33;;;20.70;93.70;;;;;;5032030;28;20030;-67
2021/05/17 09:13:07;;;;;;;2.78;1.08;;;20.70;93.70;;;;;;5032184;28;20033;-66
2021/05/17 09:15:34;;;;;;;2.17;1.00;;;20.70;93.90;;;;;;5032006;28;20070;-67
2021/05/17 09:18:02;;;;;;;2.45;1.08;;;20.60;94.00;;;;;;5032008;28;20022;-67
2021/05/17 09:20:37;;;;;;;3.95;1.33;;;20.60;94.60;;;;;;5031205;28;20507;-67
2021/05/17 09:23:07;;;;;;;2.97;1.20;;;20.50;94.30;;;;;;5030728;28;20029;-66
2021/05/17 09:25:33;;;;;;;3.78;1.25;;;20.50;94.10;;;;;;5023985;28;20524;-67
2021/05/17 09:28:08;;;;;;;1.98;0.88;;;20.50;94.10;;;;;;5031600;28;20025;-66
2021/05/17 09:30:51;;;;;;;2.67;1.10;;;20.60;94.20;;;;;;5031686;28;20496;-66
2021/05/17 09:33:18;;;;;;;2.92;1.30;;;20.70;94.10;;;;;;5031290;28;20037;-67
2021/05/17 09:35:45;;;;;;;2.80;1.17;;;20.70;94.00;;;;;;5031355;28;20037;-67
2021/05/17 09:38:25;;;;;;;2.50;1.15;;;20.70;94.00;;;;;;5031127;28;20029;-66
2021/05/17 09:41:04;;;;;;;1.98;1.05;;;20.70;94.10;;;;;;5031742;28;20029;-65
2021/05/17 09:43:31;;;;;;;2.92;1.10;;;20.70;94.40;;;;;;5032082;28;20032;-66
2021/05/17 09:45:57;;;;;;;3.13;1.15;;;21.20;93.40;;;;;;5031423;28;20026;-65
2021/05/17 09:48:45;;;;;;;2.50;1.30;;;21.20;93.10;;;;;;5031635;28;20037;-66
2021/05/17 09:51:13;;;;;;;1.98;0.98;;;21.20;93.00;;;;;;5031635;28;20043;-66
2021/05/17 09:53:39;;;;;;;1.58;0.80;;;21.20;93.10;;;;;;5031713;28;20083;-67
2021/05/17 09:56:15;;;;;;;2.38;1.00;;;21.20;93.30;;;;;;5035133;28;20041;-64
2021/05/17 09:58:44;;;;;;;3.10;1.00;;;21.20;93.40;;;;;;5035647;28;20021;-66
2021/05/17 10:01:30;;;;;;;1.92;0.82;;;21.40;93.90;;;;;;5035820;28;20029;-66
2021/05/17 10:04:02;;;;;;;1.40;0.70;;;21.50;92.90;;;;;;5035296;28;20485;-66
2021/05/17 10:06:28;;;;;;;2.42;0.73;;;21.50;92.60;;;;;;5015739;28;20026;-67
2021/05/17 10:08:55;;;;;;;2.45;0.82;;;21.40;92.80;;;;;;5015652;28;20029;-67
2021/05/17 10:11:22;;;;;;;0.90;0.43;;;21.40;93.40;;;;;;5015776;28;20057;-62
2021/05/17 10:13:48;;;;;;;1.25;0.50;;;21.30;93.60;;;;;;5015521;28;20045;-67
2021/05/17 10:16:16;;;;;;;2.20;0.75;;;21.20;93.40;;;;;;5015572;28;20037;-66
2021/05/17 10:18:43;;;;;;;3.33;1.25;;;21.20;93.70;;;;;;5015534;28;20022;-66
2021/05/17 10:21:25;;;;;;;3.40;1.38;;;20.90;93.00;;;;;;5015699;28;20026;-67
2021/05/17 10:23:52;;;;;;;3.45;1.25;;;20.70;93.30;;;;;;5015650;28;20049;-66
2021/05/17 10:26:25;;;;;;;3.08;1.30;;;20.50;93.50;;;;;;5023691;28;20087;-68
2021/05/17 10:28:57;;;;;;;3.50;1.58;;;20.50;93.70;;;;;;5031243;28;20087;-69
2021/05/17 10:31:24;;;;;;;2.30;1.20;;;20.50;93.60;;;;;;5032937;28;20033;-69
2021/05/17 10:34:00;;;;;;;4.97;1.77;;;20.50;93.70;;;;;;5030510;28;20029;-68
2021/05/17 10:36:53;;;;;;;1.98;1.00;;;20.40;93.70;;;;;;5033434;28;20405;-69
2021/05/17 10:39:27;;;;;;;2.13;1.17;;;20.50;93.60;;;;;;5032898;28;20034;-73
2021/05/17 10:48:24;;;;;;;4.78;1.35;;;20.50;93.90;;;;;;5032366;28;20071;-70
2021/05/17 10:51:13;;;;;;;4.50;1.58;;;20.60;93.70;;;;;;5031817;28;20033;-70
2021/05/17 10:53:58;;;;;;;3.00;1.20;;;20.70;93.70;;;;;;5031271;28;20478;-69
2021/05/17 11:02:13;;;;;;;1.23;0.82;;;20.80;93.50;;;;;;5032465;28;20513;-70
2021/05/17 11:05:09;;;;;;;3.42;1.63;;;20.90;93.60;;;;;;5031200;28;20493;-70
2021/05/17 11:07:55;;;;;;;2.58;0.90;;;20.90;93.60;;;;;;5032957;28;20041;-70
2021/05/17 11:10:26;;;;;;;3.85;1.73;;;20.90;93.70;;;;;;5029565;28;20104;-71
2021/05/17 11:12:56;;;;;;;3.30;1.40;;;20.90;93.60;;;;;;5032250;28;20105;-69
2021/05/17 11:15:38;;;;;;;4.40;2.30;;;21.00;93.60;;;;;;5032160;28;20046;-71
2021/05/17 11:18:06;;;;;;;5.57;2.85;;;21.00;93.70;;;;;;5033056;28;20087;-70
2021/05/17 11:20:41;;;;;;;7.90;3.58;;;21.00;93.90;;;;;;5034068;28;20377;-69
2021/05/17 11:23:10;;;;;;;7.05;3.65;;;21.00;94.00;;;;;;5031833;28;20371;-69
2021/05/17 11:26:13;;;;;;;7.78;4.18;;;20.90;94.20;;;;;;5032754;28;20390;-68
2021/05/17 11:31:22;;;;;;;11.50;4.50;;;21.00;94.30;;;;;;5033737;28;20039;-69
2021/05/17 11:33:56;;;;;;;9.40;4.40;;;20.90;94.40;;;;;;5034039;28;20037;-68
2021/05/17 11:36:30;;;;;;;8.55;5.13;;;20.90;94.60;;;;;;5033890;28;20040;-70
2021/05/17 11:39:10;;;;;;;11.25;4.78;;;20.90;95.10;;;;;;5033604;28;20381;-70
2021/05/17 11:41:38;;;;;;;9.27;5.07;;;20.90;95.50;;;;;;5033844;28;20445;-67
2021/05/17 11:44:06;;;;;;;9.27;4.97;;;20.80;95.80;;;;;;5033870;28;20033;-68
2021/05/17 11:46:39;;;;;;;10.63;4.88;;;20.80;95.90;;;;;;5033139;28;20022;-68
2021/05/17 11:49:09;;;;;;;11.40;5.07;;;20.80;95.80;;;;;;5031883;28;20038;-70
2021/05/17 11:51:35;;;;;;;9.38;4.60;;;20.80;96.10;;;;;;5033513;28;20044;-71
2021/05/17 11:54:02;;;;;;;7.22;3.97;;;20.70;96.20;;;;;;5032171;28;20124;-71
2021/05/17 11:56:55;;;;;;;9.00;4.25;;;20.60;96.20;;;;;;5033499;28;20021;-68
2021/05/17 11:59:26;;;;;;;9.43;4.20;;;20.60;96.40;;;;;;5032986;28;20034;-68
2021/05/17 12:01:54;;;;;;;9.70;4.43;;;20.60;96.60;;;;;;5033388;28;20029;-66
2021/05/17 12:04:24;;;;;;;9.63;3.72;;;20.60;96.40;;;;;;5033520;28;20021;-70
2021/05/17 12:06:57;;;;;;;8.50;4.07;;;20.70;96.20;;;;;;5033772;28;20029;-71
2021/05/17 12:09:28;;;;;;;7.50;3.75;;;20.70;96.10;;;;;;5033457;28;20025;-69
2021/05/17 12:11:54;;;;;;;8.35;3.80;;;20.80;96.10;;;;;;5033448;28;20028;-72
2021/05/17 12:14:20;;;;;;;10.57;3.95;;;20.90;96.00;;;;;;5033322;28;20037;-68
2021/05/17 12:17:00;;;;;;;7.93;3.60;;;20.90;96.00;;;;;;5032823;28;20028;-68
2021/05/17 12:19:25;;;;;;;6.88;3.20;;;20.90;95.80;;;;;;5032706;28;20382;-70
2021/05/17 12:21:56;;;;;;;6.75;3.10;;;20.90;95.70;;;;;;5033065;28;20025;-72
2021/05/17 12:24:28;;;;;;;6.43;3.35;;;20.90;95.70;;;;;;5032903;28;20033;-68
2021/05/17 12:26:59;;;;;;;6.35;3.40;;;20.80;96.20;;;;;;5031724;28;20021;-71
2021/05/17 12:29:27;;;;;;;5.85;3.15;;;20.80;96.00;;;;;;5031490;28;20033;-68
2021/05/17 12:31:53;;;;;;;6.97;3.15;;;20.80;96.00;;;;;;5032896;28;20017;-67
2021/05/17 12:34:19;;;;;;;6.78;3.05;;;20.80;96.10;;;;;;5032851;28;20030;-67
2021/05/17 12:36:45;;;;;;;5.78;2.63;;;20.80;96.20;;;;;;5032946;28;20034;-69
2021/05/17 12:39:18;;;;;;;7.22;3.13;;;20.80;96.10;;;;;;5032629;28;20104;-69
2021/05/17 12:41:47;;;;;;;6.88;3.05;;;20.80;96.00;;;;;;5032926;28;20041;-69
2021/05/17 12:44:34;;;;;;;7.20;2.95;;;20.90;95.90;;;;;;5032938;28;20025;-67
2021/05/17 12:47:09;;;;;;;5.53;2.95;;;20.80;95.90;;;;;;5032446;28;20074;-66
2021/05/17 12:49:49;;;;;;;5.38;2.70;;;20.80;95.90;;;;;;5016978;28;20072;-69
2021/05/17 12:52:25;;;;;;;5.15;2.40;;;20.80;95.90;;;;;;5032901;28;20385;-72
2021/05/17 12:55:18;;;;;;;4.45;2.50;;;20.80;96.00;;;;;;5032096;28;20045;-73
2021/05/17 12:58:02;;;;;;;4.80;2.47;;;20.80;96.00;;;;;;5031345;28;20424;-71
2021/05/17 13:00:46;;;;;;;;;;;20.80;95.90;;;;;;5013052;28;20504;-72
2021/05/17 13:03:18;;;;;;;4.60;2.40;;;20.90;95.90;;;;;;5012720;28;20043;-74
2021/05/17 13:06:07;;;;;;;4.35;2.53;;;20.90;95.90;;;;;;5012747;28;20034;-73
2021/05/17 13:08:35;;;;;;;4.80;2.58;;;20.90;95.90;;;;;;5012769;28;20029;-69
2021/05/17 13:11:10;;;;;;;6.10;2.47;;;20.90;95.90;;;;;;5012328;28;20097;-66
2021/05/17 13:13:44;;;;;;;4.85;2.20;;;20.90;95.80;;;;;;5012432;28;20034;-67
2021/05/17 13:16:18;;;;;;;5.18;2.60;;;21.00;95.90;;;;;;5012300;28;20037;-67
2021/05/17 13:21:57;;;;;;;4.82;2.03;;;21.00;95.70;;;;;;5032358;28;20029;-68
2021/05/17 13:30:03;;;;;;;4.20;2.20;;;21.00;95.70;;;;;;5031225;28;20056;-66
2021/05/17 13:32:30;;;;;;;2.92;2.08;;;21.00;95.80;;;;;;5031891;28;20118;-69
2021/05/17 13:34:56;;;;;;;3.83;2.17;;;20.90;95.80;;;;;;5031759;28;20045;-72
2021/05/17 13:37:21;;;;;;;4.18;2.10;;;20.90;95.80;;;;;;5031881;28;20542;-67
2021/05/17 13:39:47;;;;;;;5.55;2.38;;;21.00;95.80;;;;;;5032020;28;20112;-69